createdAt,value
2022-08-08T00:00:52.672Z,17.34
2022-08-08T00:03:54.677Z,17.37
2022-08-08T00:06:49.637Z,17.41
2022-08-08T00:09:52.538Z,17.35
2022-08-08T00:12:56.334Z,17.40
2022-08-08T00:15:58.336Z,17.30
2022-08-08T00:18:56.257Z,17.33
2022-08-08T00:21:50.130Z,17.70
2022-08-08T00:24:46.424Z,17.80
2022-08-08T00:27:39.061Z,17.86
2022-08-08T00:30:35.835Z,17.87
2022-08-08T00:34:18.703Z,17.87
2022-08-08T00:37:03.380Z,17.82
2022-08-08T00:41:11.726Z,17.75
2022-08-08T00:43:55.831Z,17.89
2022-08-08T00:47:14.182Z,17.78
2022-08-08T00:50:57.622Z,17.77
2022-08-08T00:54:15.826Z,17.73
2022-08-08T00:57:42.507Z,17.61
2022-08-08T01:00:50.166Z,17.56
2022-08-08T01:04:29.725Z,17.63
2022-08-08T01:07:55.626Z,17.68
2022-08-08T01:11:15.963Z,17.72
2022-08-08T01:14:53.149Z,17.76
2022-08-08T01:18:25.520Z,17.73
2022-08-08T01:22:11.858Z,17.69
2022-08-08T01:25:42.787Z,17.62
2022-08-08T01:28:59.125Z,17.69
2022-08-08T01:32:22.053Z,17.63
2022-08-08T01:35:40.377Z,17.56
2022-08-08T01:39:23.598Z,17.68
2022-08-08T01:42:35.392Z,17.66
2022-08-08T01:45:42.540Z,17.71
2022-08-08T01:48:48.213Z,17.69
2022-08-08T01:52:29.558Z,17.77
2022-08-08T01:55:19.253Z,17.71
2022-08-08T01:58:47.034Z,17.72
2022-08-08T02:02:03.034Z,17.58
2022-08-08T02:05:06.298Z,17.27
2022-08-08T02:08:17.538Z,17.12
2022-08-08T02:11:23.430Z,17.35
2022-08-08T02:14:27.484Z,17.35
2022-08-08T02:17:20.577Z,17.21
2022-08-08T02:21:03.010Z,16.78
2022-08-08T02:23:44.218Z,16.69
2022-08-08T02:26:43.870Z,16.98
2022-08-08T02:30:01.684Z,17.09
2022-08-08T02:33:14.453Z,16.90
2022-08-08T02:36:16.341Z,17.10
2022-08-08T02:39:41.347Z,17.15
2022-08-08T02:44:35.636Z,17.19
2022-08-08T02:46:38.546Z,17.17
2022-08-08T02:49:51.420Z,17.20
2022-08-08T02:52:52.226Z,17.08
2022-08-08T02:56:17.614Z,17.05
2022-08-08T02:59:57.973Z,16.46
2022-08-08T03:05:04.439Z,16.97
2022-08-08T03:07:58.118Z,17.11
2022-08-08T03:11:47.643Z,17.13
2022-08-08T03:16:01.433Z,17.32
2022-08-08T03:18:07.586Z,17.18
2022-08-08T03:21:01.759Z,17.17
2022-08-08T03:24:01.993Z,17.11
2022-08-08T03:26:58.394Z,17.33
2022-08-08T03:29:56.497Z,17.19
2022-08-08T03:33:08.007Z,17.20
2022-08-08T03:36:27.981Z,17.38
2022-08-08T03:39:20.973Z,17.32
2022-08-08T03:42:30.056Z,17.42
2022-08-08T03:46:07.276Z,17.28
2022-08-08T03:49:09.168Z,17.26
2022-08-08T03:51:51.240Z,17.42
2022-08-08T03:55:01.623Z,17.57
2022-08-08T03:58:32.863Z,17.62
2022-08-08T04:01:25.973Z,17.66
2022-08-08T04:04:11.457Z,17.76
2022-08-08T04:07:05.247Z,17.93
2022-08-08T04:10:05.530Z,18.01
2022-08-08T04:12:56.259Z,18.08
2022-08-08T04:16:03.528Z,18.11
2022-08-08T04:18:57.891Z,18.28
2022-08-08T04:21:47.102Z,18.29
2022-08-08T04:24:40.222Z,18.41
2022-08-08T04:28:03.492Z,18.51
2022-08-08T04:30:44.287Z,18.55
2022-08-08T04:33:39.981Z,18.58
2022-08-08T04:36:31.363Z,18.69
2022-08-08T04:39:48.028Z,18.73
2022-08-08T04:42:34.073Z,18.75
2022-08-08T04:45:25.828Z,18.74
2022-08-08T04:48:16.285Z,18.79
2022-08-08T04:51:05.424Z,18.87
2022-08-08T04:54:39.216Z,18.91
2022-08-08T04:57:03.883Z,18.90
2022-08-08T04:59:54.258Z,18.57
2022-08-08T05:02:42.872Z,18.67
2022-08-08T05:05:44.434Z,18.67
2022-08-08T05:08:35.200Z,18.77
2022-08-08T05:11:25.968Z,18.80
2022-08-08T05:14:20.666Z,18.69
2022-08-08T05:17:16.558Z,18.88
2022-08-08T05:20:13.678Z,18.97
2022-08-08T05:23:04.066Z,19.04
2022-08-08T05:26:00.181Z,19.02
2022-08-08T05:28:57.468Z,19.04
2022-08-08T05:32:04.050Z,19.12
2022-08-08T05:35:04.385Z,19.03
2022-08-08T05:37:56.252Z,19.14
2022-08-08T05:40:59.900Z,19.21
2022-08-08T05:44:03.650Z,19.11
2022-08-08T05:47:02.686Z,19.31
2022-08-08T05:49:54.221Z,19.39
2022-08-08T05:52:49.299Z,19.40
2022-08-08T05:56:10.459Z,19.37
2022-08-08T05:59:03.923Z,19.54
2022-08-08T06:01:59.972Z,19.42
2022-08-08T06:04:57.314Z,19.49
2022-08-08T06:07:51.930Z,19.50
2022-08-08T06:10:51.848Z,19.54
2022-08-08T06:13:47.495Z,19.56
2022-08-08T06:16:38.485Z,19.66
2022-08-08T06:19:45.908Z,19.64
2022-08-08T06:22:35.312Z,19.65
2022-08-08T06:25:33.313Z,19.52
2022-08-08T06:28:44.962Z,19.65
2022-08-08T06:31:52.955Z,19.72
2022-08-08T06:34:56.352Z,19.80
2022-08-08T06:38:01.820Z,19.73
2022-08-08T06:41:04.226Z,19.74
2022-08-08T06:43:58.226Z,19.72
2022-08-08T06:46:54.211Z,19.92
2022-08-08T06:49:55.248Z,19.99
2022-08-08T06:52:47.903Z,20.00
2022-08-08T06:55:41.581Z,19.98
2022-08-08T06:58:33.952Z,20.02
2022-08-08T07:02:26.878Z,20.08
2022-08-08T07:04:54.200Z,20.20
2022-08-08T07:07:58.340Z,20.15
2022-08-08T07:10:52.122Z,20.27
2022-08-08T07:14:00.907Z,20.28
2022-08-08T07:17:02.797Z,20.41
2022-08-08T07:20:05.977Z,20.45
2022-08-08T07:23:04.661Z,20.60
2022-08-08T07:25:57.440Z,20.52
2022-08-08T07:28:50.536Z,20.67
2022-08-08T07:31:46.761Z,20.49
2022-08-08T07:34:39.929Z,20.49
2022-08-08T07:37:56.520Z,20.48
2022-08-08T07:41:04.283Z,20.64
2022-08-08T07:43:59.029Z,20.73
2022-08-08T07:46:47.783Z,20.59
2022-08-08T07:49:40.409Z,20.77
2022-08-08T07:52:32.399Z,21.01
2022-08-08T07:55:28.698Z,21.22
2022-08-08T07:58:28.021Z,21.41
2022-08-08T08:01:27.094Z,21.64
2022-08-08T08:04:23.763Z,21.72
2022-08-08T08:07:16.212Z,21.77
2022-08-08T08:10:05.913Z,21.60
2022-08-08T08:12:57.919Z,21.81
2022-08-08T08:15:54.194Z,22.07
2022-08-08T08:18:55.547Z,22.05
2022-08-08T08:21:57.438Z,21.93
2022-08-08T08:25:08.239Z,21.87
2022-08-08T08:27:59.952Z,22.09
2022-08-08T08:30:51.875Z,22.13
2022-08-08T08:33:43.650Z,22.31
2022-08-08T08:36:38.197Z,22.18
2022-08-08T08:40:00.591Z,22.44
2022-08-08T08:42:36.769Z,22.46
2022-08-08T08:45:32.634Z,22.63
2022-08-08T08:48:24.561Z,22.29
2022-08-08T08:51:16.509Z,22.89
2022-08-08T08:54:09.259Z,23.06
2022-08-08T08:57:00.253Z,23.24
2022-08-08T08:59:58.851Z,23.31
2022-08-08T09:02:52.973Z,23.55
2022-08-08T09:05:54.077Z,23.64
2022-08-08T09:08:51.985Z,23.65
2022-08-08T09:11:47.348Z,23.73
2022-08-08T09:14:54.558Z,23.77
2022-08-08T09:17:55.542Z,23.76
2022-08-08T09:22:02.795Z,23.76
2022-08-08T09:24:00.126Z,23.94
2022-08-08T09:27:00.736Z,24.01
2022-08-08T09:29:53.584Z,24.32
2022-08-08T09:33:01.433Z,24.43
2022-08-08T09:35:57.183Z,24.88
2022-08-08T09:38:55.077Z,24.94
2022-08-08T09:42:20.824Z,24.65
2022-08-08T09:45:15.778Z,24.84
2022-08-08T09:48:27.005Z,25.22
2022-08-08T09:51:41.564Z,25.34
2022-08-08T09:54:44.746Z,24.93
2022-08-08T09:57:46.288Z,25.28
2022-08-08T10:00:53.422Z,25.36
2022-08-08T10:03:55.808Z,25.48
2022-08-08T10:06:52.842Z,25.53
2022-08-08T10:10:00.300Z,25.60
2022-08-08T10:12:53.827Z,25.74
2022-08-08T10:16:01.092Z,25.59
2022-08-08T10:18:55.304Z,25.40
2022-08-08T10:21:51.299Z,25.60
2022-08-08T10:24:47.881Z,25.56
2022-08-08T10:27:43.464Z,25.83
2022-08-08T10:31:00.755Z,26.29
2022-08-08T10:34:19.394Z,26.34
2022-08-08T10:36:51.964Z,26.60
2022-08-08T10:39:54.525Z,26.91
2022-08-08T10:42:44.926Z,26.89
2022-08-08T10:45:56.800Z,26.46
2022-08-08T10:48:56.009Z,27.34
2022-08-08T10:51:51.227Z,27.55
2022-08-08T10:54:41.425Z,27.82
2022-08-08T10:57:45.099Z,27.78
2022-08-08T11:00:52.548Z,27.90
2022-08-08T11:04:00.933Z,28.40
2022-08-08T11:07:00.707Z,28.40
2022-08-08T11:09:49.115Z,28.48
2022-08-08T11:12:47.332Z,28.24
2022-08-08T11:15:36.572Z,28.38
2022-08-08T11:18:48.934Z,28.20
2022-08-08T11:21:54.245Z,28.98
2022-08-08T11:24:48.313Z,28.64
2022-08-08T11:27:38.166Z,29.12
2022-08-08T11:30:31.779Z,28.78
2022-08-08T11:33:51.825Z,29.14
2022-08-08T11:36:36.356Z,29.38
2022-08-08T11:39:27.676Z,29.84
2022-08-08T11:42:26.910Z,29.98
2022-08-08T11:45:18.301Z,29.27
2022-08-08T11:48:09.677Z,29.60
2022-08-08T11:50:59.018Z,29.44
2022-08-08T11:53:59.257Z,29.94
2022-08-08T11:56:56.642Z,30.20
2022-08-08T12:00:01.306Z,30.67
2022-08-08T12:03:03.314Z,30.61
2022-08-08T12:05:54.083Z,30.95
2022-08-08T12:08:43.059Z,29.74
2022-08-08T12:11:40.239Z,30.12
2022-08-08T12:14:30.043Z,30.25
2022-08-08T12:17:18.779Z,30.11
2022-08-08T12:20:14.467Z,30.46
2022-08-08T12:23:03.365Z,30.05
2022-08-08T12:25:52.705Z,29.88
2022-08-08T12:28:56.904Z,29.80
2022-08-08T12:31:53.943Z,30.03
2022-08-08T12:34:44.890Z,30.30
2022-08-08T12:37:41.173Z,30.25
2022-08-08T12:40:54.823Z,30.17
2022-08-08T12:44:00.110Z,30.18
2022-08-08T12:47:00.110Z,29.83
2022-08-08T12:49:56.181Z,30.06
2022-08-08T12:52:55.876Z,29.74
2022-08-08T12:56:06.517Z,29.44
2022-08-08T12:59:02.227Z,29.66
2022-08-08T13:01:52.802Z,29.73
2022-08-08T13:04:51.264Z,30.09
2022-08-08T13:08:04.466Z,30.03
2022-08-08T13:10:56.960Z,30.28
2022-08-08T13:14:03.959Z,30.96
2022-08-08T13:16:52.809Z,30.68
2022-08-08T13:19:50.135Z,31.28
2022-08-08T13:23:20.152Z,31.71
2022-08-08T13:26:03.876Z,31.77
2022-08-08T13:29:09.449Z,31.43
2022-08-08T13:32:04.659Z,31.82
2022-08-08T13:34:59.066Z,31.48
2022-08-08T13:38:05.410Z,31.71
2022-08-08T13:40:56.161Z,31.94
2022-08-08T13:43:46.473Z,32.24
2022-08-08T13:46:35.358Z,32.12
2022-08-08T13:50:36.015Z,32.32
2022-08-08T13:52:37.806Z,32.41
2022-08-08T13:55:29.139Z,32.58
2022-08-08T13:58:24.724Z,32.04
2022-08-08T14:01:19.175Z,31.54
2022-08-08T14:04:22.377Z,32.03
2022-08-08T14:07:11.619Z,31.85
2022-08-08T14:10:02.296Z,31.78
2022-08-08T14:12:52.789Z,32.26
2022-08-08T14:15:46.396Z,32.03
2022-08-08T14:18:51.961Z,32.92
2022-08-08T14:21:48.942Z,32.72
2022-08-08T14:24:41.376Z,33.10
2022-08-08T14:27:35.713Z,33.65
2022-08-08T14:30:34.944Z,33.52
2022-08-08T14:33:27.628Z,34.14
2022-08-08T14:36:35.543Z,33.94
2022-08-08T14:39:48.645Z,33.72
2022-08-08T14:42:36.889Z,33.34
2022-08-08T14:46:02.981Z,32.67
2022-08-08T14:48:52.586Z,32.71
2022-08-08T14:51:51.742Z,31.86
2022-08-08T14:54:47.776Z,31.88
2022-08-08T14:58:03.340Z,31.68
2022-08-08T15:00:48.108Z,31.62
2022-08-08T15:03:44.905Z,31.65
2022-08-08T15:06:44.346Z,31.53
2022-08-08T15:09:33.853Z,31.21
2022-08-08T15:12:27.723Z,30.83
2022-08-08T15:16:01.341Z,30.85
2022-08-08T15:18:29.952Z,30.53
2022-08-08T15:21:18.482Z,30.29
2022-08-08T15:24:12.586Z,30.35
2022-08-08T15:27:12.199Z,30.24
2022-08-08T15:30:14.588Z,30.01
2022-08-08T15:33:04.740Z,29.64
2022-08-08T15:35:53.147Z,29.79
2022-08-08T15:38:49.633Z,29.61
2022-08-08T15:41:44.110Z,29.59
2022-08-08T15:44:34.500Z,29.80
2022-08-08T15:47:23.989Z,29.69
2022-08-08T15:50:20.720Z,29.66
2022-08-08T15:53:09.517Z,29.21
2022-08-08T15:55:59.503Z,29.37
2022-08-08T15:58:49.057Z,29.22
2022-08-08T16:01:40.866Z,29.20
2022-08-08T16:04:46.654Z,29.28
2022-08-08T16:07:50.935Z,29.16
2022-08-08T16:13:07.543Z,28.94
2022-08-08T16:13:50.812Z,28.87
2022-08-08T16:16:42.488Z,28.67
2022-08-08T16:19:57.227Z,28.73
2022-08-08T16:22:42.113Z,28.44
2022-08-08T16:25:46.179Z,28.29
2022-08-08T16:28:42.176Z,28.38
2022-08-08T16:31:30.980Z,28.40
2022-08-08T16:34:22.116Z,28.22
2022-08-08T16:37:13.476Z,27.83
2022-08-08T16:40:07.698Z,27.81
2022-08-08T16:43:00.724Z,27.65
2022-08-08T16:46:42.886Z,27.81
2022-08-08T16:48:57.702Z,27.75
2022-08-08T16:55:02.949Z,27.66
2022-08-08T16:55:03.016Z,27.48
2022-08-08T16:58:15.010Z,27.36
2022-08-08T17:01:10.899Z,27.17
2022-08-08T17:04:03.498Z,27.36
2022-08-08T17:06:52.424Z,27.38
2022-08-08T17:09:44.992Z,27.33
2022-08-08T17:12:36.489Z,27.43
2022-08-08T17:15:27.003Z,27.42
2022-08-08T17:18:23.278Z,27.72
2022-08-08T17:21:13.880Z,27.85
2022-08-08T17:24:06.055Z,27.88
2022-08-08T17:27:00.450Z,27.85
2022-08-08T17:29:56.619Z,27.78
2022-08-08T17:34:36.347Z,27.57
2022-08-08T17:36:12.390Z,27.66
2022-08-08T17:39:05.118Z,27.32
2022-08-08T17:42:11.395Z,27.43
2022-08-08T17:45:00.254Z,27.09
2022-08-08T17:47:50.871Z,26.87
2022-08-08T17:50:39.515Z,26.73
2022-08-08T17:53:43.630Z,26.74
2022-08-08T17:56:33.033Z,26.71
2022-08-08T17:59:23.494Z,26.57
2022-08-08T18:02:28.669Z,26.47
2022-08-08T18:05:23.007Z,26.35
2022-08-08T18:08:24.013Z,26.27
2022-08-08T18:11:16.223Z,26.03
2022-08-08T18:14:05.534Z,26.04
2022-08-08T18:17:17.508Z,25.76
2022-08-08T18:20:44.294Z,25.54
2022-08-08T18:23:26.757Z,25.41
2022-08-08T18:26:15.341Z,25.23
2022-08-08T18:29:05.922Z,25.06
2022-08-08T18:31:54.629Z,24.85
2022-08-08T18:34:44.469Z,24.66
2022-08-08T18:37:48.592Z,24.58
2022-08-08T18:40:38.656Z,24.51
2022-08-08T18:43:38.035Z,24.37
2022-08-08T18:46:54.874Z,24.21
2022-08-08T18:49:57.784Z,24.19
2022-08-08T18:52:47.444Z,24.02
2022-08-08T18:55:44.078Z,23.87
2022-08-08T18:58:35.097Z,23.80
2022-08-08T19:02:28.451Z,23.64
2022-08-08T19:04:35.665Z,23.49
2022-08-08T19:07:29.941Z,23.34
2022-08-08T19:10:22.296Z,23.34
2022-08-08T19:13:21.471Z,23.36
2022-08-08T19:16:18.326Z,23.32
2022-08-08T19:19:13.189Z,23.20
2022-08-08T19:22:02.389Z,23.05
2022-08-08T19:25:59.663Z,23.08
2022-08-08T19:28:01.807Z,23.04
2022-08-08T19:31:03.875Z,22.99
2022-08-08T19:34:29.657Z,22.91
2022-08-08T19:37:04.378Z,22.95
2022-08-08T19:39:53.557Z,22.87
2022-08-08T19:42:42.383Z,22.82
2022-08-08T19:45:58.626Z,22.81
2022-08-08T19:48:57.734Z,22.65
2022-08-08T19:51:46.158Z,22.69
2022-08-08T19:54:37.560Z,22.64
2022-08-08T19:57:26.022Z,22.48
2022-08-08T20:00:29.992Z,22.48
2022-08-08T20:04:02.570Z,22.36
2022-08-08T20:06:30.164Z,22.30
2022-08-08T20:09:22.876Z,22.33
2022-08-08T20:12:11.837Z,22.20
2022-08-08T20:15:09.762Z,22.17
2022-08-08T20:18:04.939Z,22.08
2022-08-08T20:21:04.252Z,22.12
2022-08-08T20:23:57.610Z,21.98
2022-08-08T20:26:49.142Z,22.04
2022-08-08T20:29:55.211Z,21.93
2022-08-08T20:32:47.260Z,21.85
2022-08-08T20:35:58.565Z,21.74
2022-08-08T20:38:45.277Z,21.76
2022-08-08T20:41:35.259Z,21.69
2022-08-08T20:44:25.067Z,21.75
2022-08-08T20:47:22.663Z,21.72
2022-08-08T20:50:13.140Z,21.78
2022-08-08T20:53:01.701Z,21.64
2022-08-08T20:55:51.149Z,21.51
2022-08-08T20:58:47.554Z,21.36
2022-08-08T21:02:05.363Z,21.41
2022-08-08T21:04:47.661Z,21.40
2022-08-08T21:08:33.337Z,21.41
2022-08-08T21:10:47.695Z,21.45
2022-08-08T21:13:40.948Z,21.52
2022-08-08T21:16:31.418Z,21.61
2022-08-08T21:19:20.720Z,21.62
2022-08-08T21:22:11.778Z,21.62
2022-08-08T21:25:02.188Z,21.61
2022-08-08T21:28:14.714Z,21.63
2022-08-08T21:30:59.190Z,21.56
2022-08-08T21:33:55.871Z,21.36
2022-08-08T21:36:49.686Z,21.49
2022-08-08T21:39:54.681Z,21.49
2022-08-08T21:42:45.922Z,21.45
2022-08-08T21:47:59.135Z,21.43
2022-08-08T21:48:49.344Z,21.49
2022-08-08T21:54:17.621Z,21.57
2022-08-08T21:55:01.655Z,21.57
2022-08-08T21:58:05.908Z,21.54
2022-08-08T22:00:58.227Z,21.48
2022-08-08T22:03:52.667Z,20.94
2022-08-08T22:06:42.455Z,21.17
2022-08-08T22:09:37.640Z,21.33
2022-08-08T22:12:29.617Z,21.43
2022-08-08T22:15:18.758Z,21.40
2022-08-08T22:18:12.402Z,21.52
2022-08-08T22:21:14.485Z,21.50
2022-08-08T22:24:06.700Z,21.46
2022-08-08T22:27:02.417Z,21.41
2022-08-08T22:29:59.017Z,21.11
2022-08-08T22:32:51.504Z,20.99
2022-08-08T22:36:05.724Z,20.94
2022-08-08T22:38:51.007Z,20.99
2022-08-08T22:41:40.823Z,20.98
2022-08-08T22:44:29.230Z,21.11
2022-08-08T22:47:21.059Z,20.92
2022-08-08T22:50:25.847Z,21.00
2022-08-08T22:54:32.026Z,20.99
2022-08-08T22:56:24.506Z,20.97
2022-08-08T22:59:18.617Z,20.93
2022-08-08T23:02:12.931Z,20.78
2022-08-08T23:05:05.310Z,20.48
2022-08-08T23:08:02.096Z,20.39
2022-08-08T23:10:52.725Z,20.54
2022-08-08T23:13:53.894Z,20.61
2022-08-08T23:16:59.051Z,20.58
2022-08-08T23:19:48.827Z,20.17
2022-08-08T23:22:42.842Z,20.15
2022-08-08T23:25:31.818Z,20.18
2022-08-08T23:28:33.466Z,20.24
2022-08-08T23:31:22.463Z,20.17
2022-08-08T23:34:17.221Z,19.90
2022-08-08T23:37:07.598Z,19.66
2022-08-08T23:40:00.107Z,19.63
2022-08-08T23:42:49.017Z,19.42
2022-08-08T23:49:02.238Z,19.27
2022-08-08T23:49:04.026Z,19.22
2022-08-08T23:52:04.727Z,19.07
2022-08-08T23:55:07.375Z,19.52
2022-08-08T23:58:03.139Z,19.52
